Hk Delight — 3FNE4 — position and weather

sailwx.info

Track history (hours):
 
Tides and Currents Weather Stations Pressure Air Temp Water Temp Dewpoint Dewpoint Depression Visibility Wind Speed Wind Dir Waves Ship Positions

Hk Delight

Last reported at 2017-Dec-29 06:06 UTC. Time now 2018-Feb-22 03:29 UTC.
Position N 01°16' E 103°23'.
Warning: this ship's position is 54 days out of date.

Length 210 m; draft 11.4 m.

Type: Cargo ship. MMSI: 352452610.

Date/timePositionNaut miles runAvg speedWind from/ knotsBaromVisibWave heightAir tempDewpointWater temp
2017-Dec-29 06:06N 01°16' E 103°23'213.7
2017-Dec-29 05:58N 01°15' E 103°25'713.5
2017-Dec-29 05:27N 01°12' E 103°31'612.9
2017-Dec-29 04:59N 01°11' E 103°37'612.7
2017-Dec-29 04:30N 01°09' E 103°43'611.3
2017-Dec-29 04:00N 01°10' E 103°48'612.3
2017-Dec-29 03:29N 01°13' E 103°54'510.0
2017-Dec-29 02:59N 01°15' E 103°59'2 1.8
2017-Dec-29 01:49N 01°17' E 103°59'0 0.1
2017-Dec-29 01:19N 01°17' E 103°59'0 0.2
2017-Dec-29 00:58N 01°17' E 103°59'0 0.0
2017-Dec-29 00:25N 01°17' E 103°59'0 0.1
2017-Dec-28 23:55N 01°17' E 103°59'0 0.1
2017-Dec-28 23:28N 01°17' E 103°59'0 0.0
2017-Dec-28 22:55N 01°17' E 103°59'0 0.0
2017-Dec-28 21:52N 01°17' E 103°59'0 0.0
2017-Dec-28 21:19N 01°17' E 103°59'0 0.0
2017-Dec-28 20:58N 01°17' E 103°59'0 0.0
2017-Dec-28 20:13N 01°17' E 103°59'0 0.0
2017-Dec-28 19:55N 01°17' E 103°59'0 0.0
2017-Dec-28 19:10N 01°17' E 103°59'0 0.0
2017-Dec-28 17:46N 01°17' E 103°59'0 0.0
2017-Dec-28 17:19N 01°17' E 103°59'0 0.1
2017-Dec-28 16:46N 01°17' E 103°59'0 0.0
2017-Dec-28 16:27N 01°17' E 103°59'0 0.1
2017-Dec-28 15:48N 01°17' E 103°59'0 0.2
2017-Dec-28 15:30N 01°17' E 103°59'0 0.0
2017-Dec-28 14:21N 01°17' E 103°59'0 0.1
2017-Dec-28 13:14N 01°17' E 103°59'1 4.3
2017-Dec-28 13:00N 01°17' E 103°59'1 1.9
2017-Dec-28 12:30N 01°16' E 103°58'2 4.4
2017-Dec-28 12:00N 01°16' E 104°01'4 7.9
2017-Dec-28 11:30N 01°16' E 104°05'  
2017-Dec-23 06:38N 22°12' E 121°20'311.5
2017-Dec-23 06:23N 22°14' E 121°22'1311.8
2017-Dec-23 05:19N 22°24' E 121°30'411.9
2017-Dec-23 04:59N 22°27' E 121°33'611.5
2017-Dec-23 04:29N 22°31' E 121°37'611.4
2017-Dec-23 03:57N 22°36' E 121°41'711.1
2017-Dec-23 03:20N 22°43' E 121°44'411.1
2017-Dec-23 03:00N 22°46' E 121°45'611.2
2017-Dec-23 02:30N 22°51' E 121°47'511.1
2017-Dec-23 02:00N 22°56' E 121°49'610.3
2017-Dec-23 01:27N 23°02' E 121°52'9 9.5
2017-Dec-23 00:31N 23°10' E 121°55'110.6
2017-Dec-23 00:25N 23°11' E 121°55'511.1
2017-Dec-23 00:00N 23°15' E 121°57'611.0
2017-Dec-22 23:25N 23°22' E 121°59'2710.4
2017-Dec-22 20:52N 23°46' E 122°09'410.8
2017-Dec-22 20:29N 23°50' E 122°11'511.3
2017-Dec-22 20:00N 23°55' E 122°13'611.4
2017-Dec-22 19:30N 24°01' E 122°15'611.1
2017-Dec-22 19:00N 24°06' E 122°17'511.0
2017-Dec-22 18:30N 24°11' E 122°19'510.7
2017-Dec-22 18:00N 24°16' E 122°21'510.5
2017-Dec-22 17:30N 24°21' E 122°23'510.6
2017-Dec-22 17:00N 24°26' E 122°25'611.2
2017-Dec-22 16:30N 24°31' E 122°27'611.7
2017-Dec-22 16:00N 24°37' E 122°29'611.3
2017-Dec-22 15:30N 24°42' E 122°31'510.8
2017-Dec-22 15:00N 24°47' E 122°33'510.5
2017-Dec-22 14:30N 24°52' E 122°35'510.7
2017-Dec-22 14:00N 24°57' E 122°37'510.5
2017-Dec-22 13:30N 25°02' E 122°39'510.4
2017-Dec-22 13:00N 25°07' E 122°41'611.1
2017-Dec-22 12:30N 25°12' E 122°43'611.8
2017-Dec-22 12:00N 25°18' E 122°45'64812.6
2017-Dec-20 08:23N 34°13' E 129°46'513.9
2017-Dec-20 08:00N 34°16' E 129°52'713.5
2017-Dec-20 07:30N 34°21' E 129°58'612.5
2017-Dec-20 07:00N 34°25' E 130°04'612.2
2017-Dec-20 06:30N 34°28' E 130°09'612.2
2017-Dec-20 06:00N 34°32' E 130°15'612.2
2017-Dec-20 05:30N 34°36' E 130°21'612.1
2017-Dec-20 04:59N 34°40' E 130°26'612.1
2017-Dec-20 04:28N 34°45' E 130°32'812.1
2017-Dec-20 03:47N 34°51' E 130°39'  
Track history (hours):
 
Tides and Currents Weather Stations Pressure Air Temp Water Temp Dewpoint Dewpoint Depression Visibility Wind Speed Wind Dir Waves Ship Positions

Hk Delight

Last reported at 2017-Dec-29 06:06 UTC. Time now 2018-Feb-22 03:29 UTC.
Position N 01°16' E 103°23'.
Warning: this ship's position is 54 days out of date.

Length 210 m; draft 11.4 m.

Type: Cargo ship. MMSI: 352452610.

Date/timePositionNaut miles runAvg speedWind from/ knotsBaromVisibWave heightAir tempDewpointWater temp
2017-Dec-29 06:06N 01°16' E 103°23'213.7
2017-Dec-29 05:58N 01°15' E 103°25'713.5
2017-Dec-29 05:27N 01°12' E 103°31'612.9
2017-Dec-29 04:59N 01°11' E 103°37'612.7
2017-Dec-29 04:30N 01°09' E 103°43'611.3
2017-Dec-29 04:00N 01°10' E 103°48'612.3
2017-Dec-29 03:29N 01°13' E 103°54'510.0
2017-Dec-29 02:59N 01°15' E 103°59'2 1.8
2017-Dec-29 01:49N 01°17' E 103°59'0 0.1
2017-Dec-29 01:19N 01°17' E 103°59'0 0.2
2017-Dec-29 00:58N 01°17' E 103°59'0 0.0
2017-Dec-29 00:25N 01°17' E 103°59'0 0.1
2017-Dec-28 23:55N 01°17' E 103°59'0 0.1
2017-Dec-28 23:28N 01°17' E 103°59'0 0.0
2017-Dec-28 22:55N 01°17' E 103°59'0 0.0
2017-Dec-28 21:52N 01°17' E 103°59'0 0.0
2017-Dec-28 21:19N 01°17' E 103°59'0 0.0
2017-Dec-28 20:58N 01°17' E 103°59'0 0.0
2017-Dec-28 20:13N 01°17' E 103°59'0 0.0
2017-Dec-28 19:55N 01°17' E 103°59'0 0.0
2017-Dec-28 19:10N 01°17' E 103°59'0 0.0
2017-Dec-28 17:46N 01°17' E 103°59'0 0.0
2017-Dec-28 17:19N 01°17' E 103°59'0 0.1
2017-Dec-28 16:46N 01°17' E 103°59'0 0.0
2017-Dec-28 16:27N 01°17' E 103°59'0 0.1
2017-Dec-28 15:48N 01°17' E 103°59'0 0.2
2017-Dec-28 15:30N 01°17' E 103°59'0 0.0
2017-Dec-28 14:21N 01°17' E 103°59'0 0.1
2017-Dec-28 13:14N 01°17' E 103°59'1 4.3
2017-Dec-28 13:00N 01°17' E 103°59'1 1.9
2017-Dec-28 12:30N 01°16' E 103°58'2 4.4
2017-Dec-28 12:00N 01°16' E 104°01'4 7.9
2017-Dec-28 11:30N 01°16' E 104°05'  
2017-Dec-23 06:38N 22°12' E 121°20'311.5
2017-Dec-23 06:23N 22°14' E 121°22'1311.8
2017-Dec-23 05:19N 22°24' E 121°30'411.9
2017-Dec-23 04:59N 22°27' E 121°33'611.5
2017-Dec-23 04:29N 22°31' E 121°37'611.4
2017-Dec-23 03:57N 22°36' E 121°41'711.1
2017-Dec-23 03:20N 22°43' E 121°44'411.1
2017-Dec-23 03:00N 22°46' E 121°45'611.2
2017-Dec-23 02:30N 22°51' E 121°47'511.1
2017-Dec-23 02:00N 22°56' E 121°49'610.3
2017-Dec-23 01:27N 23°02' E 121°52'9 9.5
2017-Dec-23 00:31N 23°10' E 121°55'110.6
2017-Dec-23 00:25N 23°11' E 121°55'511.1
2017-Dec-23 00:00N 23°15' E 121°57'611.0
2017-Dec-22 23:25N 23°22' E 121°59'2710.4
2017-Dec-22 20:52N 23°46' E 122°09'410.8
2017-Dec-22 20:29N 23°50' E 122°11'511.3
2017-Dec-22 20:00N 23°55' E 122°13'611.4
2017-Dec-22 19:30N 24°01' E 122°15'611.1
2017-Dec-22 19:00N 24°06' E 122°17'511.0
2017-Dec-22 18:30N 24°11' E 122°19'510.7
2017-Dec-22 18:00N 24°16' E 122°21'510.5
2017-Dec-22 17:30N 24°21' E 122°23'510.6
2017-Dec-22 17:00N 24°26' E 122°25'611.2
2017-Dec-22 16:30N 24°31' E 122°27'611.7
2017-Dec-22 16:00N 24°37' E 122°29'611.3
2017-Dec-22 15:30N 24°42' E 122°31'510.8
2017-Dec-22 15:00N 24°47' E 122°33'510.5
2017-Dec-22 14:30N 24°52' E 122°35'510.7
2017-Dec-22 14:00N 24°57' E 122°37'510.5
2017-Dec-22 13:30N 25°02' E 122°39'510.4
2017-Dec-22 13:00N 25°07' E 122°41'611.1
2017-Dec-22 12:30N 25°12' E 122°43'611.8
2017-Dec-22 12:00N 25°18' E 122°45'64812.6
2017-Dec-20 08:23N 34°13' E 129°46'513.9
2017-Dec-20 08:00N 34°16' E 129°52'713.5
2017-Dec-20 07:30N 34°21' E 129°58'612.5
2017-Dec-20 07:00N 34°25' E 130°04'612.2
2017-Dec-20 06:30N 34°28' E 130°09'612.2
2017-Dec-20 06:00N 34°32' E 130°15'612.2
2017-Dec-20 05:30N 34°36' E 130°21'612.1
2017-Dec-20 04:59N 34°40' E 130°26'612.1
2017-Dec-20 04:28N 34°45' E 130°32'812.1
2017-Dec-20 03:47N 34°51' E 130°39'  

Dump ship's entire track history